Time;durP1;ratioP1;P1;durP2;ratioP2;P2;SDS_P1;SDS_P2;PMS_P1;PMS_P2;Temp;Humidity;BMP_temperature;BMP_pressure;BME280_temperature;BME280_humidity;BME280_pressure;Samples;Min_cycle;Max_cycle;Signal;HPM_P1;HPM_P2
2021/05/09 07:00:58;;;;;;;5.80;5.20;;;19.70;93.40;;;;;;5110789;27;20323;-87
2021/05/09 07:03:23;;;;;;;6.32;5.70;;;19.70;93.80;;;;;;5109691;28;20038;-87
2021/05/09 07:05:49;;;;;;;12.18;9.50;;;19.80;93.90;;;;;;5110974;28;20479;-88
2021/05/09 07:08:15;;;;;;;14.73;11.63;;;19.90;93.80;;;;;;5110735;28;20024;-87
2021/05/09 07:10:40;;;;;;;16.73;14.27;;;20.10;93.70;;;;;;5109223;28;20044;-88
2021/05/09 07:13:06;;;;;;;19.50;16.27;;;20.20;93.50;;;;;;5109441;28;20032;-87
2021/05/09 07:18:06;;;;;;;23.35;19.35;;;20.50;93.20;;;;;;5110115;28;20039;-86
2021/05/09 07:20:34;;;;;;;24.88;19.88;;;20.60;93.00;;;;;;5109463;28;20135;-87
2021/05/09 07:23:01;;;;;;;28.00;22.33;;;20.70;92.80;;;;;;5109228;28;20481;-87
2021/05/09 07:25:27;;;;;;;29.90;22.85;;;20.80;92.70;;;;;;5110585;28;20019;-85
2021/05/09 07:27:53;;;;;;;30.17;23.63;;;20.80;92.60;;;;;;5109097;28;20370;-85
2021/05/09 07:30:20;;;;;;;27.85;22.33;;;20.90;92.50;;;;;;5110338;28;20036;-85
2021/05/09 07:32:45;;;;;;;30.60;23.65;;;21.00;92.40;;;;;;5110240;28;20161;-86
2021/05/09 07:35:11;;;;;;;31.27;23.83;;;21.00;92.30;;;;;;5109260;28;20066;-86
2021/05/09 07:37:37;;;;;;;33.13;25.40;;;21.10;92.30;;;;;;5110220;28;20020;-86
2021/05/09 07:40:04;;;;;;;38.00;28.38;;;21.10;92.50;;;;;;5110074;28;20032;-86
2021/05/09 07:42:30;;;;;;;40.80;30.98;;;21.10;92.20;;;;;;5109046;28;20036;-89
2021/05/09 07:44:58;;;;;;;43.13;33.00;;;21.20;92.40;;;;;;5109090;28;20035;-88
2021/05/09 07:47:25;;;;;;;43.90;32.40;;;21.20;92.10;;;;;;5126760;27;20032;-87
2021/05/09 07:53:17;;;;;;;41.63;26.85;;;21.30;92.70;;;;;;5110634;27;781711;-92
2021/05/09 07:55:43;;;;;;;29.92;22.83;;;21.50;92.90;;;;;;5094330;28;20036;-92
2021/05/09 07:58:21;;;;;;;29.45;22.20;;;21.60;92.40;;;;;;5077753;28;20509;-93
2021/05/09 08:00:48;;;;;;;27.63;20.45;;;21.70;92.10;;;;;;5094211;28;20059;-95
2021/05/09 08:03:14;;;;;;;28.77;21.83;;;21.70;91.80;;;;;;5112936;28;20059;-94
2021/05/09 08:05:40;;;;;;;29.05;20.77;;;21.70;91.60;;;;;;5077442;28;20035;-95
2021/05/09 08:08:07;;;;;;;28.63;22.15;;;21.70;91.50;;;;;;5112723;28;20023;-95
2021/05/09 08:10:36;;;;;;;33.10;22.77;;;21.80;91.40;;;;;;5078120;28;20035;-94
2021/05/09 08:13:05;;;;;;;30.60;22.45;;;21.80;91.20;;;;;;5094690;28;20548;-94
2021/05/09 08:15:31;;;;;;;31.08;23.25;;;21.80;91.10;;;;;;5113576;28;20028;-94
2021/05/09 08:17:58;;;;;;;30.90;22.45;;;21.80;91.10;;;;;;5095803;28;20027;-95
2021/05/09 08:20:24;;;;;;;30.38;23.10;;;21.90;91.00;;;;;;5080947;28;20123;-94
2021/05/09 08:22:50;;;;;;;28.48;22.02;;;21.90;91.00;;;;;;5098358;28;20031;-94
2021/05/09 08:25:16;;;;;;;26.92;20.52;;;21.90;90.90;;;;;;5114220;28;20034;-94
2021/05/09 08:27:43;;;;;;;29.98;20.80;;;21.90;90.90;;;;;;5076856;28;20035;-94
2021/05/09 08:30:09;;;;;;;25.40;19.23;;;21.90;90.80;;;;;;5059990;28;20036;-94
2021/05/09 08:32:35;;;;;;;27.40;19.27;;;22.00;90.80;;;;;;5093678;28;20040;-94
2021/05/09 08:35:04;;;;;;;25.65;18.30;;;22.00;90.80;;;;;;5092652;28;20549;-94
2021/05/09 08:37:32;;;;;;;20.42;16.05;;;22.00;90.90;;;;;;5093568;28;20028;-92
2021/05/09 08:39:59;;;;;;;24.60;15.45;;;22.00;90.90;;;;;;5075371;28;20366;-91
2021/05/09 08:42:25;;;;;;;19.95;15.07;;;22.00;91.00;;;;;;5092547;28;20032;-91
2021/05/09 08:44:53;;;;;;;19.20;13.70;;;22.10;91.00;;;;;;5075512;28;20032;-92
2021/05/09 08:47:36;;;;;;;17.98;12.85;;;22.10;91.10;;;;;;5092142;28;20226;-92
2021/05/09 08:50:04;;;;;;;19.15;11.50;;;22.10;91.10;;;;;;5092956;28;20034;-91
2021/05/09 08:52:31;;;;;;;15.68;11.13;;;22.10;91.10;;;;;;5092173;28;20408;-91
2021/05/09 08:54:57;;;;;;;14.10;10.30;;;22.10;91.20;;;;;;5088679;28;20054;-91
2021/05/09 08:57:23;;;;;;;12.85;10.18;;;22.10;91.20;;;;;;5089069;28;20024;-90
2021/05/09 08:59:51;;;;;;;13.38;10.10;;;22.10;91.20;;;;;;5088927;28;20056;-90
2021/05/09 09:02:21;;;;;;;13.07;9.98;;;22.10;91.20;;;;;;5088935;28;20035;-90
2021/05/09 09:04:52;;;;;;;10.65;8.38;;;22.20;91.20;;;;;;5074669;28;20423;-91
2021/05/09 09:07:18;;;;;;;10.13;8.20;;;22.20;91.20;;;;;;5077099;28;20031;-90
2021/05/09 09:09:46;;;;;;;10.88;7.75;;;22.20;91.30;;;;;;5075415;28;20078;-90
2021/05/09 09:12:13;;;;;;;10.40;7.57;;;22.20;91.30;;;;;;5076092;28;20235;-90
2021/05/09 09:14:54;;;;;;;9.40;6.97;;;22.20;91.30;;;;;;5076457;28;20028;-90
2021/05/09 09:17:21;;;;;;;10.05;6.80;;;22.20;91.30;;;;;;5083325;28;20029;-90
2021/05/09 09:20:15;;;;;;;12.10;7.18;;;22.20;91.30;;;;;;5085862;28;20081;-93
2021/05/09 09:22:52;;;;;;;8.55;6.53;;;22.30;91.30;;;;;;5083474;28;20359;-90
2021/05/09 09:25:19;;;;;;;9.27;7.15;;;22.30;91.30;;;;;;5078472;28;20025;-90
2021/05/09 09:27:46;;;;;;;8.70;6.32;;;22.20;91.30;;;;;;5061143;28;20124;-90
2021/05/09 09:30:13;;;;;;;9.57;6.60;;;22.30;91.30;;;;;;5076503;28;20059;-90
2021/05/09 09:32:39;;;;;;;9.60;6.15;;;22.30;91.30;;;;;;5076682;28;20525;-90
2021/05/09 09:35:28;;;;;;;9.10;6.18;;;22.30;91.30;;;;;;5061139;28;20132;-90
2021/05/09 09:37:54;;;;;;;8.40;5.97;;;22.30;91.20;;;;;;5076669;28;20102;-95
2021/05/09 09:40:23;;;;;;;7.28;5.63;;;22.30;91.30;;;;;;5065268;28;20032;-93
2021/05/09 09:42:49;;;;;;;6.82;4.68;;;22.30;91.30;;;;;;5078446;28;20028;-92
2021/05/09 09:52:50;;;;;;;6.63;4.93;;;22.40;91.30;;;;;;5071069;28;20064;-90
2021/05/09 09:55:16;;;;;;;5.82;4.50;;;22.40;91.40;;;;;;5022421;28;20060;-93
2021/05/09 09:58:04;;;;;;;5.43;3.92;;;22.40;91.40;;;;;;5040936;28;20029;-94
2021/05/09 10:11:35;;;;;;;5.45;3.85;;;22.40;91.60;;;;;;5056843;28;20033;-93
2021/05/09 10:18:02;;;;;;;6.72;4.30;;;22.50;91.60;;;;;;5056292;28;20055;-93
2021/05/09 10:24:15;;;;;;;5.93;4.25;;;22.50;91.60;;;;;;5055933;28;20091;-93
2021/05/09 10:30:31;;;;;;;6.35;4.63;;;22.50;91.70;;;;;;5057440;28;20028;-95
2021/05/09 10:32:57;;;;;;;6.28;4.03;;;22.60;91.90;;;;;;5036214;28;20028;-91
2021/05/09 10:35:51;;;;;;;5.57;4.20;;;22.60;92.10;;;;;;5037235;28;20033;-92
2021/05/09 10:38:17;;;;;;;6.85;3.80;;;22.60;92.30;;;;;;5021407;28;20029;-92
2021/05/09 10:40:48;;;;;;;5.45;3.72;;;22.60;92.30;;;;;;5021188;28;20029;-92
2021/05/09 10:43:16;;;;;;;6.43;4.13;;;22.60;92.30;;;;;;5041574;28;20035;-92
2021/05/09 10:45:51;;;;;;;;;;;;;;;;;;;;;
2021/05/09 10:56:15;;;;;;;6.07;3.65;;;22.70;92.50;;;;;;5070484;28;20066;-91
2021/05/09 10:58:47;;;;;;;6.40;3.78;;;22.70;92.50;;;;;;5055078;28;20063;-91
2021/05/09 11:29:14;;;;;;;10.23;6.15;;;22.80;92.20;;;;;;5053667;28;20029;-92
2021/05/09 11:58:52;;;;;;;2.20;1.70;;;24.10;91.50;;;;;;6088585;22;20064;31
2021/05/09 12:12:08;;;;;;;;;;;;;;;;;;;;;
2021/05/09 12:28:19;;;;;;;2.23;2.00;;;24.30;92.30;;;;;;6239749;22;20030;31
2021/05/09 13:03:38;;;;;;;23.45;13.70;;;24.40;93.60;;;;;;5125082;27;20361;-92
2021/05/09 13:06:04;;;;;;;22.77;16.52;;;24.50;93.50;;;;;;5079471;28;20060;-90
2021/05/09 13:08:30;;;;;;;20.10;15.90;;;24.50;93.40;;;;;;5078776;28;20379;-90
2021/05/09 13:10:55;;;;;;;22.48;15.85;;;24.50;93.20;;;;;;5057018;28;20074;-93
2021/05/09 13:13:21;;;;;;;22.15;16.48;;;24.50;93.20;;;;;;5073522;28;20127;-89
2021/05/09 13:15:47;;;;;;;26.85;16.48;;;24.50;93.20;;;;;;5087570;28;20017;-89
2021/05/09 13:18:12;;;;;;;19.35;15.52;;;24.50;93.30;;;;;;5061808;28;20027;-90
2021/05/09 13:20:38;;;;;;;20.60;15.23;;;24.50;93.40;;;;;;5040640;28;20367;-89
2021/05/09 13:23:04;;;;;;;18.17;14.50;;;24.50;93.30;;;;;;5072643;28;20063;-90
2021/05/09 13:25:29;;;;;;;18.73;15.10;;;24.50;93.30;;;;;;5057035;28;20482;-90
2021/05/09 13:28:42;;;;;;;16.50;13.63;;;24.50;93.40;;;;;;5053665;28;20040;-93
2021/05/09 13:31:09;;;;;;;19.48;15.10;;;24.50;93.30;;;;;;5057846;28;20119;-90
2021/05/09 13:33:35;;;;;;;23.70;16.88;;;24.50;93.40;;;;;;5071844;28;20025;-89
2021/05/09 13:36:01;;;;;;;20.30;17.25;;;24.50;93.60;;;;;;5055447;28;20051;-82
2021/05/09 13:38:26;;;;;;;24.25;17.83;;;24.50;93.60;;;;;;5075636;28;20029;-91
2021/05/09 13:40:52;;;;;;;22.05;17.20;;;24.50;93.50;;;;;;5053146;28;20025;-90
2021/05/09 13:43:18;;;;;;;24.92;18.17;;;24.60;93.60;;;;;;5060049;28;20024;-90
2021/05/09 13:45:44;;;;;;;18.67;15.48;;;24.50;93.50;;;;;;5055386;28;20031;-91
2021/05/09 13:48:10;;;;;;;21.35;16.60;;;24.50;93.50;;;;;;5053371;28;20032;-91
2021/05/09 13:50:36;;;;;;;21.60;17.48;;;24.60;93.50;;;;;;5058107;28;20008;-90
2021/05/09 13:53:03;;;;;;;25.27;17.08;;;24.60;93.60;;;;;;5062815;28;20051;-90
2021/05/09 13:55:29;;;;;;;21.23;15.77;;;24.60;93.60;;;;;;5072433;28;20033;-89
2021/05/09 13:57:55;;;;;;;21.17;16.77;;;24.60;93.50;;;;;;5057896;28;20024;-89
2021/05/09 14:00:21;;;;;;;22.02;15.68;;;24.60;93.60;;;;;;5054744;28;20037;-90
2021/05/09 14:02:47;;;;;;;19.15;15.05;;;24.60;93.60;;;;;;5062563;28;20056;-91
2021/05/09 14:05:13;;;;;;;18.85;15.55;;;24.60;93.50;;;;;;5032433;28;20506;-90
2021/05/09 14:07:39;;;;;;;21.83;16.58;;;24.70;93.50;;;;;;5031959;28;20025;-90
2021/05/09 14:10:06;;;;;;;20.88;16.15;;;24.70;93.50;;;;;;5041709;28;20021;-90
2021/05/09 14:12:32;;;;;;;18.52;14.52;;;24.70;93.50;;;;;;5030288;28;20428;-90
2021/05/09 14:14:59;;;;;;;21.90;15.38;;;24.70;93.50;;;;;;5037120;28;20025;-89
2021/05/09 14:17:31;;;;;;;17.48;14.00;;;24.70;93.60;;;;;;5018851;28;20030;-92
2021/05/09 14:19:58;;;;;;;17.30;13.52;;;24.70;93.50;;;;;;5024343;28;20427;-89
2021/05/09 14:22:24;;;;;;;17.90;13.90;;;24.70;93.60;;;;;;5039047;28;20486;-90
2021/05/09 14:24:49;;;;;;;16.30;12.32;;;24.70;93.50;;;;;;5038527;28;20033;-90
2021/05/09 14:27:15;;;;;;;15.35;13.02;;;24.70;93.50;;;;;;5021884;28;20037;-90
2021/05/09 14:29:41;;;;;;;14.15;11.23;;;24.70;93.50;;;;;;5038573;28;20025;-89
2021/05/09 14:32:12;;;;;;;17.63;12.77;;;24.70;93.50;;;;;;5056749;28;20033;-90
2021/05/09 14:34:37;;;;;;;14.05;11.82;;;24.70;93.50;;;;;;5044109;28;20031;-90
2021/05/09 14:37:03;;;;;;;14.23;10.45;;;24.70;93.50;;;;;;5021978;28;20458;-91
2021/05/09 14:39:29;;;;;;;12.55;10.55;;;24.70;93.50;;;;;;5038663;28;20029;-90
2021/05/09 14:41:54;;;;;;;13.15;10.52;;;24.70;93.50;;;;;;5028912;28;20039;-90
2021/05/09 14:44:20;;;;;;;11.13;9.48;;;24.60;93.50;;;;;;5036160;28;20029;-89
2021/05/09 14:46:46;;;;;;;10.93;8.93;;;24.70;93.50;;;;;;5018278;28;20026;-90
2021/05/09 14:49:12;;;;;;;10.98;9.00;;;24.60;93.40;;;;;;5018408;28;20439;-90
2021/05/09 14:51:38;;;;;;;11.68;8.90;;;24.60;93.50;;;;;;5017689;28;20036;-90
2021/05/09 14:54:04;;;;;;;11.30;8.18;;;24.60;93.50;;;;;;5001916;28;20033;-89
2021/05/09 14:56:34;;;;;;;10.45;7.75;;;24.60;93.50;;;;;;5036203;28;20021;-91
2021/05/09 14:59:00;;;;;;;9.50;7.72;;;24.60;93.50;;;;;;5036507;28;20483;-89
2021/05/09 15:01:28;;;;;;;10.13;8.00;;;24.60;93.50;;;;;;5018153;28;20128;-89
2021/05/09 15:03:53;;;;;;;12.07;8.05;;;24.60;93.60;;;;;;5046409;28;20083;-88
2021/05/09 15:06:20;;;;;;;8.50;6.85;;;24.60;93.50;;;;;;5063593;28;20057;-89
2021/05/09 15:08:46;;;;;;;9.27;6.70;;;24.60;93.50;;;;;;5074369;28;20039;-89
2021/05/09 15:11:12;;;;;;;8.88;7.20;;;24.60;93.60;;;;;;5074056;28;20029;-89
2021/05/09 15:13:37;;;;;;;7.68;6.70;;;24.60;93.50;;;;;;5074581;28;20107;-89
2021/05/09 15:16:03;;;;;;;8.45;6.68;;;24.60;93.50;;;;;;5062396;28;20021;-88
2021/05/09 15:18:31;;;;;;;8.52;6.07;;;24.60;93.50;;;;;;5066393;28;20090;-90
2021/05/09 15:20:57;;;;;;;6.43;5.60;;;24.60;93.50;;;;;;5066227;28;20031;-88
2021/05/09 15:23:25;;;;;;;9.93;6.15;;;24.60;93.60;;;;;;5056505;28;20390;-92
2021/05/09 15:25:53;;;;;;;6.50;5.38;;;24.60;93.60;;;;;;5053664;28;20360;-91
2021/05/09 15:28:21;;;;;;;6.85;5.53;;;24.60;93.60;;;;;;5055813;28;20025;-87
2021/05/09 15:30:47;;;;;;;9.20;6.15;;;24.60;93.70;;;;;;5036896;28;20367;-87
2021/05/09 15:33:12;;;;;;;7.15;6.05;;;24.60;93.70;;;;;;5065114;28;20048;-87
2021/05/09 15:35:38;;;;;;;5.90;4.88;;;24.60;93.70;;;;;;5060374;28;20412;-88
2021/05/09 15:38:04;;;;;;;7.38;5.72;;;24.60;93.70;;;;;;5058991;28;20032;-89
2021/05/09 15:40:29;;;;;;;6.70;5.43;;;24.60;93.70;;;;;;5043600;28;20461;-89
2021/05/09 15:42:55;;;;;;;6.35;5.20;;;24.60;93.70;;;;;;5058695;28;20041;-89
2021/05/09 15:45:21;;;;;;;7.25;5.20;;;24.60;93.70;;;;;;5049460;28;20037;-89
2021/05/09 15:47:46;;;;;;;6.30;5.38;;;24.60;93.70;;;;;;5053975;28;20056;-89
2021/05/09 15:50:12;;;;;;;5.50;4.85;;;24.60;93.70;;;;;;5056809;28;20058;-88
2021/05/09 15:52:39;;;;;;;5.55;4.47;;;24.60;93.70;;;;;;5058969;28;20029;-90
2021/05/09 15:55:05;;;;;;;5.88;5.05;;;24.60;93.70;;;;;;5042382;28;20040;-89
2021/05/09 15:57:31;;;;;;;5.70;4.53;;;24.60;93.70;;;;;;5063393;28;20033;-88
2021/05/09 15:59:56;;;;;;;6.13;4.75;;;24.60;94.00;;;;;;5073643;28;20036;-88
2021/05/09 16:02:22;;;;;;;6.60;4.70;;;24.60;93.70;;;;;;5073611;28;20036;-88
2021/05/09 16:04:48;;;;;;;5.55;4.80;;;24.50;93.70;;;;;;5074107;28;20056;-89
2021/05/09 16:07:13;;;;;;;5.63;4.72;;;24.50;93.70;;;;;;5036603;28;20025;-89
2021/05/09 16:09:44;;;;;;;4.90;4.22;;;24.50;93.70;;;;;;5034583;28;20471;-89
2021/05/09 16:12:10;;;;;;;5.25;4.38;;;24.50;93.70;;;;;;5058169;28;20035;-88
2021/05/09 16:14:36;;;;;;;4.72;4.20;;;24.50;93.60;;;;;;5025446;28;20473;-88
2021/05/09 16:17:02;;;;;;;4.72;4.15;;;24.50;93.50;;;;;;5015748;28;20041;-89
2021/05/09 16:19:27;;;;;;;5.38;4.40;;;24.50;93.60;;;;;;5023349;28;20028;-89
2021/05/09 16:21:53;;;;;;;5.45;3.97;;;24.50;93.70;;;;;;5021679;28;20041;-89
2021/05/09 16:24:20;;;;;;;6.15;4.38;;;24.40;93.60;;;;;;5053529;28;20043;-88
2021/05/09 16:26:47;;;;;;;4.45;4.05;;;24.50;93.70;;;;;;5020253;28;20120;-88
2021/05/09 16:29:13;;;;;;;5.55;3.97;;;24.40;93.70;;;;;;5064799;28;20025;-89
2021/05/09 16:31:39;;;;;;;7.38;5.10;;;24.40;93.60;;;;;;5038526;28;20423;-89
2021/05/09 16:34:05;;;;;;;8.80;7.07;;;24.50;93.70;;;;;;5019577;28;20042;-89
2021/05/09 16:36:31;;;;;;;10.35;7.72;;;24.40;93.70;;;;;;5017122;28;20391;-89
2021/05/09 16:38:57;;;;;;;11.48;9.02;;;24.40;93.90;;;;;;5029440;28;20028;-89
2021/05/09 16:41:23;;;;;;;16.65;8.60;;;24.40;93.90;;;;;;5019096;28;20073;-89
2021/05/09 16:43:50;;;;;;;7.82;6.10;;;24.40;93.70;;;;;;5034956;28;20026;-88
2021/05/09 16:46:16;;;;;;;7.57;6.15;;;24.50;93.50;;;;;;5019280;28;20025;-89
2021/05/09 16:48:41;;;;;;;10.60;6.78;;;24.40;93.30;;;;;;5022941;28;20025;-92
2021/05/09 16:51:07;;;;;;;7.38;5.38;;;24.40;93.20;;;;;;5028060;28;20034;-89
2021/05/09 16:56:14;;;;;;;7.80;5.40;;;24.50;93.10;;;;;;5044863;28;20103;-89
2021/05/09 16:58:40;;;;;;;9.65;5.70;;;24.40;93.00;;;;;;5012261;28;20116;-90
2021/05/09 17:01:07;;;;;;;7.82;5.07;;;24.40;93.00;;;;;;5035405;28;20475;-89
2021/05/09 17:03:32;;;;;;;5.68;4.68;;;24.40;93.00;;;;;;5035716;28;20029;-89
2021/05/09 17:05:58;;;;;;;6.43;4.65;;;24.50;93.00;;;;;;5037953;28;20120;-89
2021/05/09 17:08:24;;;;;;;5.95;4.63;;;24.50;93.00;;;;;;5029098;28;20029;-88
2021/05/09 17:10:51;;;;;;;5.90;4.57;;;24.50;93.00;;;;;;5043625;28;20029;-89
2021/05/09 17:13:29;;;;;;;5.40;4.63;;;24.40;93.10;;;;;;5048771;28;20021;-88
2021/05/09 17:15:55;;;;;;;5.55;4.55;;;24.40;93.10;;;;;;5030673;28;20033;-89
2021/05/09 17:18:21;;;;;;;6.95;4.78;;;24.40;93.20;;;;;;5021141;28;20067;-88
2021/05/09 17:20:49;;;;;;;6.25;5.03;;;24.40;93.30;;;;;;5031114;28;20482;-89
2021/05/09 17:23:15;;;;;;;5.43;4.72;;;24.40;93.30;;;;;;5007017;28;20212;-89
2021/05/09 17:25:44;;;;;;;7.03;5.57;;;24.40;93.30;;;;;;5015267;28;20033;-88
2021/05/09 17:28:10;;;;;;;5.97;5.20;;;24.40;93.30;;;;;;5046732;28;20039;-90
2021/05/09 17:30:36;;;;;;;6.40;4.97;;;24.30;93.60;;;;;;5016487;28;20120;-89
2021/05/09 17:33:01;;;;;;;7.82;5.65;;;24.30;93.40;;;;;;5047030;28;20024;-89
2021/05/09 17:35:27;;;;;;;7.55;5.70;;;24.30;93.40;;;;;;5045367;28;20025;-89
2021/05/09 17:37:52;;;;;;;7.35;6.00;;;24.30;93.40;;;;;;5001502;28;20087;-89
2021/05/09 17:40:18;;;;;;;7.28;5.85;;;24.30;93.40;;;;;;5012500;28;20123;-89
2021/05/09 17:42:44;;;;;;;8.80;6.40;;;24.20;93.40;;;;;;5024442;28;20040;-90
2021/05/09 17:45:13;;;;;;;8.13;6.40;;;24.20;93.40;;;;;;5016541;28;20078;-88
2021/05/09 17:47:39;;;;;;;9.05;6.60;;;24.20;93.40;;;;;;5041631;28;20029;-89
2021/05/09 17:50:06;;;;;;;8.85;6.43;;;24.20;93.50;;;;;;5025576;28;20044;-89
2021/05/09 17:52:32;;;;;;;8.27;6.38;;;24.20;93.50;;;;;;5029100;28;20047;-89
2021/05/09 17:54:58;;;;;;;7.57;6.55;;;24.20;93.50;;;;;;5030452;28;20533;-89
2021/05/09 17:57:23;;;;;;;9.68;7.35;;;24.10;93.60;;;;;;5042344;28;20029;-90
2021/05/09 17:59:49;;;;;;;10.18;7.65;;;24.10;93.60;;;;;;5023414;28;20021;-88
2021/05/09 18:02:15;;;;;;;11.93;6.85;;;24.10;93.70;;;;;;5005118;28;20410;-90
2021/05/09 18:04:41;;;;;;;10.05;7.43;;;24.10;93.70;;;;;;5050666;28;20044;-88
2021/05/09 18:07:06;;;;;;;8.75;7.43;;;24.10;93.60;;;;;;5032861;28;20033;-89
2021/05/09 18:09:36;;;;;;;12.63;7.60;;;24.10;93.80;;;;;;5023438;28;20454;-87
2021/05/09 18:12:01;;;;;;;7.80;6.60;;;24.00;93.90;;;;;;5005001;28;20033;-88
2021/05/09 18:14:28;;;;;;;9.07;7.15;;;24.10;94.10;;;;;;5055727;28;20028;-88
2021/05/09 18:17:00;;;;;;;8.80;7.32;;;24.00;94.10;;;;;;5011226;28;20490;-89
2021/05/09 18:24:50;;;;;;;9.60;7.47;;;24.00;94.10;;;;;;5025700;28;20056;-88
2021/05/09 18:27:16;;;;;;;12.25;7.65;;;23.90;94.10;;;;;;5022422;28;20452;-88
2021/05/09 18:29:42;;;;;;;11.50;8.15;;;23.90;93.90;;;;;;5016800;28;20025;-88
2021/05/09 18:32:09;;;;;;;10.10;8.20;;;23.90;93.80;;;;;;5050132;28;20467;-88
2021/05/09 18:34:36;;;;;;;9.10;7.55;;;23.90;93.80;;;;;;5025375;28;20060;-88
2021/05/09 18:37:02;;;;;;;9.63;7.80;;;23.90;93.80;;;;;;5021088;28;20051;-88
2021/05/09 18:39:27;;;;;;;10.48;7.35;;;23.90;94.00;;;;;;5028579;28;20530;-88
2021/05/09 18:41:53;;;;;;;10.00;7.53;;;23.80;94.10;;;;;;5038092;28;20121;-89
2021/05/09 18:44:19;;;;;;;9.48;7.53;;;23.80;94.00;;;;;;5028136;28;20029;-88
2021/05/09 18:46:45;;;;;;;9.27;8.15;;;23.80;94.00;;;;;;5044863;28;20030;-90
2021/05/09 18:49:12;;;;;;;12.43;8.20;;;23.80;93.90;;;;;;5020638;28;20078;-89
2021/05/09 18:51:37;;;;;;;11.60;8.68;;;23.70;93.80;;;;;;5035024;28;20027;-89
2021/05/09 18:54:03;;;;;;;10.55;8.38;;;23.70;93.80;;;;;;5022736;28;20053;-90
2021/05/09 18:56:29;;;;;;;12.52;8.57;;;23.70;93.80;;;;;;5058202;28;20052;-88
2021/05/09 18:58:55;;;;;;;11.23;7.50;;;23.70;93.80;;;;;;5042111;28;20506;-87
2021/05/09 19:01:22;;;;;;;8.85;7.35;;;23.70;94.20;;;;;;5021429;28;20384;-87
2021/05/09 19:03:49;;;;;;;10.75;7.60;;;23.60;94.10;;;;;;5044344;28;20029;-87
2021/05/09 19:06:23;;;;;;;11.40;7.65;;;23.60;94.30;;;;;;5072045;28;20040;-89
2021/05/09 19:08:52;;;;;;;10.00;7.40;;;23.60;94.50;;;;;;5074750;28;20028;-88
2021/05/09 19:11:18;;;;;;;9.60;7.78;;;23.60;94.80;;;;;;5075369;28;20036;-87
2021/05/09 19:13:44;;;;;;;8.10;7.05;;;23.60;95.00;;;;;;5080986;28;20051;-87
2021/05/09 19:16:09;;;;;;;11.25;7.45;;;23.60;95.10;;;;;;5073861;28;20032;-87
2021/05/09 19:18:35;;;;;;;7.45;6.50;;;23.60;95.10;;;;;;5057322;28;20121;-87
2021/05/09 19:21:00;;;;;;;8.27;6.47;;;23.60;95.20;;;;;;5073614;28;20534;-88
2021/05/09 19:23:26;;;;;;;7.55;6.70;;;23.60;95.40;;;;;;5058362;28;20041;-88
2021/05/09 19:25:52;;;;;;;7.43;6.55;;;23.60;95.40;;;;;;5057141;28;20115;-87
2021/05/09 19:28:17;;;;;;;10.55;7.10;;;23.60;95.50;;;;;;5074204;28;20103;-88
2021/05/09 19:30:43;;;;;;;9.77;6.93;;;23.60;95.50;;;;;;5079623;28;20098;-87
2021/05/09 19:33:09;;;;;;;8.20;6.88;;;23.60;95.50;;;;;;5074561;28;20037;-87
2021/05/09 19:35:34;;;;;;;9.20;7.10;;;23.60;95.40;;;;;;5073502;28;20032;-87
2021/05/09 19:38:00;;;;;;;8.27;6.60;;;23.60;95.20;;;;;;5074363;28;20429;-87
2021/05/09 19:40:25;;;;;;;10.20;7.22;;;23.50;95.00;;;;;;5073572;28;20031;-88
2021/05/09 19:42:51;;;;;;;8.55;7.10;;;23.60;95.00;;;;;;5073619;28;20046;-87
2021/05/09 19:45:17;;;;;;;9.25;7.35;;;23.50;95.20;;;;;;5056416;28;20025;-87
2021/05/09 19:47:42;;;;;;;9.52;7.15;;;23.50;95.30;;;;;;5074449;28;20029;-89
2021/05/09 19:50:11;;;;;;;8.95;6.30;;;23.50;95.40;;;;;;5060500;28;20028;-88
2021/05/09 19:52:38;;;;;;;8.05;6.40;;;23.50;95.50;;;;;;5074719;28;20425;-87
2021/05/09 19:55:05;;;;;;;7.88;6.35;;;23.50;95.40;;;;;;5056610;28;20367;-88
2021/05/09 19:57:32;;;;;;;8.07;6.05;;;23.50;95.50;;;;;;5073397;28;20031;-88
2021/05/09 19:59:57;;;;;;;9.88;5.90;;;23.40;95.40;;;;;;5073499;28;20032;-87
2021/05/09 20:02:23;;;;;;;8.60;6.07;;;23.40;95.50;;;;;;5072395;28;20508;-87
2021/05/09 20:04:49;;;;;;;7.43;6.07;;;23.40;95.50;;;;;;5073741;28;20029;-87
2021/05/09 20:07:16;;;;;;;9.20;7.45;;;23.40;95.40;;;;;;5023027;28;20069;-88
2021/05/09 20:09:43;;;;;;;10.15;7.38;;;23.40;95.50;;;;;;5018722;28;20382;-88
2021/05/09 20:12:08;;;;;;;9.52;7.68;;;23.40;95.50;;;;;;5053820;28;20029;-88
2021/05/09 20:14:34;;;;;;;10.63;7.50;;;23.40;95.40;;;;;;5036397;28;20516;-88
2021/05/09 20:17:00;;;;;;;7.95;6.32;;;23.40;95.40;;;;;;5036879;28;20036;-87
2021/05/09 20:19:27;;;;;;;7.45;6.07;;;23.40;95.40;;;;;;5020310;28;20033;-87
2021/05/09 20:21:54;;;;;;;8.05;5.93;;;23.40;95.20;;;;;;5036311;28;20044;-88
2021/05/09 20:24:19;;;;;;;8.13;5.75;;;23.40;95.20;;;;;;5041759;28;20033;-88
2021/05/09 20:26:45;;;;;;;6.72;5.45;;;23.30;95.20;;;;;;5036120;28;20059;-88
2021/05/09 20:29:14;;;;;;;8.52;5.57;;;23.40;95.30;;;;;;5019239;28;20029;-88
2021/05/09 20:31:40;;;;;;;7.07;5.55;;;23.30;95.20;;;;;;5059422;28;20044;-88
2021/05/09 20:34:12;;;;;;;6.22;5.25;;;23.30;95.20;;;;;;5021976;28;20522;-87
2021/05/09 20:36:51;;;;;;;6.03;4.55;;;23.30;95.20;;;;;;5036958;28;20025;-88
2021/05/09 20:39:17;;;;;;;6.25;4.82;;;23.30;95.10;;;;;;5055801;28;20466;-87
2021/05/09 20:41:49;;;;;;;6.63;5.05;;;23.30;95.20;;;;;;5021701;28;20431;-87
2021/05/09 20:44:16;;;;;;;7.38;4.97;;;23.30;95.30;;;;;;5053675;28;20486;-88
2021/05/09 20:46:42;;;;;;;9.32;5.13;;;23.30;95.40;;;;;;5035669;28;20452;-88
2021/05/09 20:49:09;;;;;;;7.75;4.70;;;23.20;95.40;;;;;;5019740;28;20064;-88
2021/05/09 20:51:34;;;;;;;8.10;5.00;;;23.20;95.50;;;;;;5038800;28;20044;-88
2021/05/09 20:54:00;;;;;;;6.78;4.60;;;23.20;95.50;;;;;;5035820;28;20024;-88
2021/05/09 20:56:26;;;;;;;5.50;4.47;;;23.20;95.50;;;;;;5054206;28;20060;-87
2021/05/09 20:58:52;;;;;;;6.78;4.50;;;23.20;95.50;;;;;;5036376;28;20125;-88
2021/05/09 21:01:18;;;;;;;6.10;4.30;;;23.20;95.50;;;;;;5025159;28;20029;-88
2021/05/09 21:03:44;;;;;;;8.25;4.78;;;23.20;95.60;;;;;;5036391;28;20058;-88
2021/05/09 21:06:12;;;;;;;5.00;4.10;;;23.20;95.50;;;;;;5054687;28;20049;-90
2021/05/09 21:08:38;;;;;;;6.20;4.43;;;23.20;95.50;;;;;;5025309;28;20390;-90
2021/05/09 21:11:04;;;;;;;5.22;4.00;;;23.20;95.50;;;;;;5035886;28;20478;-89
2021/05/09 21:13:30;;;;;;;4.55;3.80;;;23.20;95.40;;;;;;5036081;28;20025;-89
2021/05/09 21:15:56;;;;;;;4.20;3.63;;;23.20;95.40;;;;;;5036416;28;20033;-88
2021/05/09 21:18:22;;;;;;;5.88;3.92;;;23.20;95.30;;;;;;5059066;28;20031;-89
2021/05/09 21:20:47;;;;;;;6.07;4.38;;;23.20;95.30;;;;;;5019904;28;20029;-89
2021/05/09 21:23:14;;;;;;;4.85;3.80;;;23.20;95.20;;;;;;5035966;28;20040;-92
2021/05/09 21:25:39;;;;;;;5.22;3.70;;;23.20;95.20;;;;;;5042257;28;20033;-89
2021/05/09 21:28:06;;;;;;;5.63;3.92;;;23.20;95.20;;;;;;5039526;28;20039;-89
2021/05/09 21:30:32;;;;;;;5.18;3.83;;;23.20;95.20;;;;;;5039439;28;20028;-89
2021/05/09 21:32:58;;;;;;;4.25;3.45;;;23.20;95.20;;;;;;5008395;28;20037;-88
2021/05/09 21:35:25;;;;;;;5.15;3.67;;;23.20;95.20;;;;;;5033873;28;20009;-88
2021/05/09 21:37:52;;;;;;;4.70;3.08;;;23.20;95.20;;;;;;5045192;28;20104;-89
2021/05/09 21:40:18;;;;;;;7.70;3.50;;;23.20;95.10;;;;;;5022486;28;20175;-89
2021/05/09 21:42:45;;;;;;;4.38;3.40;;;23.20;95.10;;;;;;5022583;28;20032;-89
2021/05/09 21:45:11;;;;;;;4.22;3.45;;;23.20;95.10;;;;;;5025063;28;20033;-88
2021/05/09 21:47:37;;;;;;;4.78;3.08;;;23.20;95.00;;;;;;5038899;28;20033;-89
2021/05/09 21:50:09;;;;;;;4.45;3.38;;;23.20;94.90;;;;;;5023772;28;20033;-89
2021/05/09 21:52:35;;;;;;;6.30;3.55;;;23.20;94.80;;;;;;5040477;28;20063;-89
2021/05/09 21:55:01;;;;;;;4.35;3.28;;;23.20;94.80;;;;;;5024253;28;20040;-88
2021/05/09 21:57:27;;;;;;;3.97;3.08;;;23.20;94.80;;;;;;5057218;28;20104;-90
2021/05/09 21:59:53;;;;;;;4.80;2.80;;;23.20;94.90;;;;;;5038961;28;20063;-89
2021/05/09 22:02:19;;;;;;;4.35;3.00;;;23.20;95.10;;;;;;5057861;28;20080;-90
2021/05/09 22:04:44;;;;;;;4.00;2.80;;;23.20;95.10;;;;;;5039927;28;20452;-90
2021/05/09 22:07:10;;;;;;;3.00;2.70;;;23.20;95.10;;;;;;5064878;28;20059;-90
2021/05/09 22:09:36;;;;;;;3.78;3.38;;;23.20;95.10;;;;;;5041578;28;20056;-91
2021/05/09 22:12:02;;;;;;;4.15;3.38;;;23.20;95.10;;;;;;5044174;28;20037;-91
2021/05/09 22:14:28;;;;;;;5.30;2.78;;;23.20;95.20;;;;;;5024817;28;20135;-89
2021/05/09 22:16:53;;;;;;;4.00;2.95;;;23.20;95.10;;;;;;5023919;28;20033;-90
2021/05/09 22:19:19;;;;;;;3.47;2.92;;;23.20;95.10;;;;;;5023273;28;20120;-92
2021/05/09 22:21:45;;;;;;;3.95;3.10;;;23.20;95.10;;;;;;5043737;28;20070;-90
2021/05/09 22:24:13;;;;;;;4.72;3.17;;;23.20;95.10;;;;;;5039707;28;20036;-90
2021/05/09 22:26:39;;;;;;;3.50;2.65;;;23.20;95.10;;;;;;5038154;28;20055;-90